Time;durP1;ratioP1;P1;durP2;ratioP2;P2;SDS_P1;SDS_P2;PMS_P1;PMS_P2;Temp;Humidity;BMP_temperature;BMP_pressure;BME280_temperature;BME280_humidity;BME280_pressure;Samples;Min_cycle;Max_cycle;Signal;HPM_P1;HPM_P2
2023/01/28 00:00:30;;;;;;;24.92;11.73;;;;;;;0.43;100.00;102123.66;6218782;22;20069;-94
2023/01/28 00:02:56;;;;;;;25.77;11.73;;;;;;;0.29;100.00;102125.16;6219162;22;20099;-94
2023/01/28 00:05:22;;;;;;;24.50;13.50;;;;;;;0.23;100.00;102131.03;6219503;22;20039;-95
2023/01/28 00:07:51;;;;;;;24.90;12.43;;;;;;;0.47;100.00;102160.97;6219113;22;20008;-95
2023/01/28 00:10:17;;;;;;;27.20;12.43;;;;;;;0.19;100.00;102130.13;6218788;22;20004;-94
2023/01/28 00:12:43;;;;;;;23.45;11.98;;;;;;;0.20;100.00;102120.84;6219247;22;20008;-96
2023/01/28 00:15:09;;;;;;;18.80;11.63;;;;;;;0.54;100.00;102172.06;6219356;22;20004;-93
2023/01/28 00:17:36;;;;;;;22.23;11.90;;;;;;;0.27;100.00;102122.63;6221607;22;20058;-94
2023/01/28 00:20:02;;;;;;;20.08;11.45;;;;;;;0.32;100.00;102126.06;6221434;22;20000;-94
2023/01/28 00:22:28;;;;;;;14.52;9.13;;;;;;;0.62;100.00;102161.13;6221540;22;20000;-95
2023/01/28 00:24:54;;;;;;;12.48;7.72;;;;;;;0.40;100.00;102121.94;6221250;22;20004;-94
2023/01/28 00:27:19;;;;;;;13.35;7.78;;;;;;;0.49;100.00;102122.84;6221491;23;20015;-95
2023/01/28 00:29:45;;;;;;;18.73;7.72;;;;;;;0.66;100.00;102156.94;6221999;22;20000;-94
2023/01/28 00:32:10;;;;;;;14.10;7.72;;;;;;;0.71;100.00;102144.28;6221449;22;20015;-94
2023/01/28 00:34:36;;;;;;;13.77;7.40;;;;;;;0.71;100.00;102129.03;6221748;22;20077;-94
2023/01/28 00:37:01;;;;;;;11.55;6.80;;;;;;;0.89;100.00;102158.88;6221984;22;20008;-96
2023/01/28 00:39:27;;;;;;;14.07;6.65;;;;;;;0.92;100.00;102141.09;6221640;22;20019;-96
2023/01/28 00:41:53;;;;;;;15.20;6.75;;;;;;;0.97;100.00;102144.53;6221483;23;20010;-95
2023/01/28 00:44:19;;;;;;;20.20;6.70;;;;;;;1.12;100.00;102154.00;6221287;22;20300;-94
2023/01/28 00:46:45;;;;;;;12.68;6.93;;;;;;;0.98;100.00;102129.31;6221906;23;20035;-94
2023/01/28 00:49:11;;;;;;;14.70;8.10;;;;;;;1.10;100.00;102146.38;6221155;22;19996;-94
2023/01/28 00:51:37;;;;;;;14.00;7.88;;;;;;;1.13;100.00;102127.75;6221481;22;20004;-94
2023/01/28 00:54:02;;;;;;;12.48;7.88;;;;;;;1.18;100.00;102123.56;6221822;22;20004;-95
2023/01/28 00:56:28;;;;;;;14.85;7.55;;;;;;;1.19;100.00;102123.56;6221068;23;20008;-95
2023/01/28 00:58:54;;;;;;;11.55;6.35;;;;;;;1.40;100.00;102157.66;6221853;22;20330;-94
2023/01/28 01:01:25;;;;;;;9.50;6.78;;;;;;;1.39;100.00;102149.19;6221761;22;20003;-95
2023/01/28 01:04:01;;;;;;;16.75;7.47;;;;;;;1.33;98.94;102140.63;6221547;22;20004;-95
2023/01/28 01:06:28;;;;;;;14.07;7.47;;;;;;;1.25;99.46;102121.06;6220972;22;20007;-94
2023/01/28 01:08:54;;;;;;;17.40;7.60;;;;;;;1.34;98.93;102127.06;6221363;23;20011;-94
2023/01/28 01:11:19;;;;;;;13.80;7.68;;;;;;;1.23;97.66;102099.84;6220843;22;20000;-95
2023/01/28 01:13:53;;;;;;;16.33;8.65;;;;;;;1.56;97.88;102151.84;6220894;23;20008;-94
2023/01/28 01:16:20;;;;;;;12.85;7.88;;;;;;;1.36;97.39;102122.84;6220912;22;20351;-94
2023/01/28 01:18:45;;;;;;;13.63;7.70;;;;;;;1.42;97.51;102139.03;6220811;22;20059;-96
2023/01/28 01:21:17;;;;;;;16.40;8.20;;;;;;;1.27;97.21;102106.69;6221450;22;20415;-96
2023/01/28 01:23:43;;;;;;;12.45;7.57;;;;;;;1.23;97.18;102102.41;6220431;22;20452;-94
2023/01/28 01:26:09;;;;;;;11.85;8.18;;;;;;;1.28;97.70;102102.44;6221134;23;20300;-94
2023/01/28 01:28:35;;;;;;;19.33;10.88;;;;;;;1.42;98.29;102120.38;6219972;22;20127;-96
2023/01/28 01:31:07;;;;;;;26.33;14.27;;;;;;;1.33;100.00;102115.19;6220394;23;20422;-93
2023/01/28 01:33:33;;;;;;;24.42;13.65;;;;;;;1.04;100.00;102103.09;6220448;22;20329;-94
2023/01/28 01:35:59;;;;;;;22.05;13.20;;;;;;;1.00;100.00;102096.25;6220786;22;20011;-96
2023/01/28 01:38:25;;;;;;;24.73;14.02;;;;;;;0.90;100.00;102100.41;6220971;23;20082;-95
2023/01/28 01:40:51;;;;;;;27.35;14.23;;;;;;;0.78;100.00;102116.41;6220796;23;19996;-94
2023/01/28 01:43:20;;;;;;;31.00;14.80;;;;;;;0.65;100.00;102112.03;6220589;22;20011;-94
2023/01/28 01:45:51;;;;;;;25.35;13.38;;;;;;;0.69;100.00;102116.31;6220921;22;20004;-94
2023/01/28 01:48:19;;;;;;;;;;;;;;;0.64;100.00;102123.03;6221255;22;20000;-95
2023/01/28 01:50:57;;;;;;;26.08;14.32;;;;;;;0.37;100.00;102099.03;6220316;22;19907;-95
2023/01/28 01:53:25;;;;;;;26.00;13.90;;;;;;;0.30;100.00;102097.25;6220510;22;19996;-95
2023/01/28 01:55:54;;;;;;;29.88;14.57;;;;;;;0.29;100.00;102094.69;6220286;22;20066;-95
2023/01/28 01:58:25;;;;;;;24.88;14.35;;;;;;;0.18;100.00;102092.03;6220823;22;20012;-95
2023/01/28 02:00:50;;;;;;;28.70;14.65;;;;;;;-0.02;100.00;102095.19;6219808;22;20004;-94
2023/01/28 02:03:22;;;;;;;21.30;13.52;;;;;;;0.19;100.00;102125.03;6225913;22;20035;-93
2023/01/28 02:05:49;;;;;;;20.92;12.80;;;;;;;0.06;100.00;102105.44;6229580;22;20034;-93
2023/01/28 02:08:21;;;;;;;25.58;13.90;;;;;;;0.07;100.00;102106.28;6229041;22;20010;-93
2023/01/28 02:10:53;;;;;;;;;;;;;;;0.31;100.00;102139.59;6227854;22;20008;-94
2023/01/28 02:13:23;;;;;;;30.42;13.40;;;;;;;0.11;100.00;102124.09;6227679;22;19908;-93
2023/01/28 02:15:49;;;;;;;23.15;14.57;;;;;;;-0.04;100.00;102107.00;6227279;22;20055;-94
2023/01/28 02:18:14;;;;;;;23.77;14.55;;;;;;;-0.12;100.00;102103.50;6226540;22;20008;-94
2023/01/28 02:21:02;;;;;;;26.27;14.52;;;;;;;0.20;100.00;102151.31;6226338;22;20000;-93
2023/01/28 02:23:45;;;;;;;25.13;15.65;;;;;;;0.25;100.00;102147.16;6226478;22;20095;-93
2023/01/28 02:26:50;;;;;;;26.65;14.05;;;;;;;0.24;100.00;102149.66;6224696;22;20011;-94
2023/01/28 02:29:40;;;;;;;27.60;14.40;;;;;;;0.04;100.00;102114.69;6221297;23;20084;-95
2023/01/28 02:32:12;;;;;;;28.85;15.38;;;;;;;0.38;100.00;102171.84;6220402;23;20004;-95
2023/01/28 02:34:46;;;;;;;25.55;15.18;;;;;;;0.32;100.00;102154.00;6220418;22;20434;-94
2023/01/28 02:37:26;;;;;;;26.08;14.55;;;;;;;0.19;100.00;102124.19;6220654;22;20012;-94
2023/01/28 02:39:59;;;;;;;28.70;14.73;;;;;;;0.41;100.00;102159.22;6220583;22;20043;-94
2023/01/28 02:42:29;;;;;;;24.70;14.18;;;;;;;0.38;100.00;102146.44;6220930;22;20000;-95
2023/01/28 02:44:55;;;;;;;22.35;12.15;;;;;;;0.46;100.00;102148.22;6220485;23;20442;-94
2023/01/28 02:50:10;;;;;;;17.80;11.02;;;;;;;0.57;100.00;102131.44;6247709;22;20095;-94
2023/01/28 02:56:05;;;;;;;18.02;9.40;;;;;;;0.89;100.00;102171.59;6246971;22;20054;-96
2023/01/28 02:58:44;;;;;;;17.08;10.10;;;;;;;0.91;100.00;102167.38;6220379;23;20000;-95
2023/01/28 03:01:32;;;;;;;18.52;10.75;;;;;;;0.80;100.00;102140.13;6220843;22;20004;-96
2023/01/28 03:04:16;;;;;;;23.05;11.02;;;;;;;0.89;100.00;102153.78;6221156;22;20122;-95
2023/01/28 03:06:50;;;;;;;17.35;11.20;;;;;;;1.16;100.00;102178.63;6220079;22;20011;-95
2023/01/28 03:09:27;;;;;;;17.13;10.77;;;;;;;1.08;100.00;102172.63;6220936;22;20366;-95
2023/01/28 03:37:21;;;;;;;21.17;11.93;;;;;;;1.13;100.00;102155.72;6246918;22;20015;-94
2023/01/28 03:39:47;;;;;;;21.65;13.13;;;;;;;1.05;100.00;102165.84;6220473;22;20004;-94
2023/01/28 03:42:14;;;;;;;21.40;12.82;;;;;;;1.12;100.00;102157.41;6220430;22;20004;-96
2023/01/28 03:44:52;;;;;;;25.15;12.68;;;;;;;0.91;100.00;102117.38;6219963;22;20461;-95
2023/01/28 03:47:19;;;;;;;22.30;12.20;;;;;;;1.01;100.00;102139.50;6221209;22;20027;-94
2023/01/28 03:49:50;;;;;;;23.92;13.18;;;;;;;1.00;100.00;102134.41;6220497;22;20008;-94
2023/01/28 03:52:18;;;;;;;23.85;13.90;;;;;;;1.00;100.00;102136.94;6219553;22;20011;-95
2023/01/28 03:54:48;;;;;;;19.70;11.98;;;;;;;1.09;100.00;102152.28;6220599;22;20004;-94
2023/01/28 03:57:15;;;;;;;24.42;13.88;;;;;;;0.84;100.00;102119.00;6220177;23;20008;-95
2023/01/28 03:59:41;;;;;;;25.33;13.55;;;;;;;0.81;100.00;102113.91;6220881;22;20011;-94
2023/01/28 04:02:07;;;;;;;24.13;15.02;;;;;;;0.73;100.00;102107.91;6220659;22;20004;-94
2023/01/28 04:04:33;;;;;;;20.65;14.15;;;;;;;0.68;100.00;102108.66;6220657;22;20097;-95
2023/01/28 04:06:59;;;;;;;23.90;14.05;;;;;;;0.59;100.00;102100.13;6220596;23;20004;-94
2023/01/28 04:09:24;;;;;;;24.38;14.02;;;;;;;0.79;100.00;102138.44;6220351;22;20000;-94
2023/01/28 04:11:50;;;;;;;24.92;14.00;;;;;;;0.71;100.00;102119.72;6221111;23;20008;-95
2023/01/28 04:14:17;;;;;;;24.42;14.38;;;;;;;0.62;100.00;102112.84;6247556;22;20027;-95
2023/01/28 04:16:42;;;;;;;25.25;13.93;;;;;;;0.63;100.00;102111.16;6220832;22;20004;-95
2023/01/28 04:19:08;;;;;;;21.13;13.57;;;;;;;0.62;100.00;102102.69;6220480;23;20027;-94
2023/01/28 04:21:35;;;;;;;22.90;13.45;;;;;;;0.52;100.00;102097.50;6220985;22;20000;-96
2023/01/28 04:24:00;;;;;;;28.00;15.82;;;;;;;0.60;100.00;102116.22;6220273;22;20000;-94
2023/01/28 04:26:27;;;;;;;24.67;15.55;;;;;;;0.60;100.00;102122.16;6219636;23;20004;-94
2023/01/28 04:28:53;;;;;;;25.15;14.32;;;;;;;0.55;100.00;102117.84;6219934;22;20426;-95
2023/01/28 04:31:18;;;;;;;25.85;14.23;;;;;;;0.53;100.00;102119.53;6220750;22;20008;-95
2023/01/28 04:33:44;;;;;;;26.75;14.27;;;;;;;0.63;100.00;102131.50;6219894;22;20410;-95
2023/01/28 04:36:09;;;;;;;26.90;14.70;;;;;;;0.57;100.00;102111.13;6219737;22;20377;-94
2023/01/28 04:38:35;;;;;;;22.58;13.98;;;;;;;0.41;100.00;102095.72;6219864;22;20064;-94
2023/01/28 04:41:01;;;;;;;21.85;13.30;;;;;;;0.60;100.00;102126.38;6219419;23;20084;-94
2023/01/28 04:43:26;;;;;;;23.67;13.57;;;;;;;0.61;100.00;102128.06;6219711;23;20020;-94
2023/01/28 04:45:52;;;;;;;22.45;13.48;;;;;;;0.47;100.00;102105.06;6220103;22;20008;-94
2023/01/28 04:48:17;;;;;;;28.15;13.43;;;;;;;0.58;100.00;102133.13;6219584;22;20098;-95
2023/01/28 04:50:44;;;;;;;21.67;12.75;;;;;;;0.54;100.00;102122.09;6220338;22;20423;-95
2023/01/28 04:53:10;;;;;;;16.67;11.48;;;;;;;0.51;100.00;102128.81;6218982;22;20007;-95
2023/01/28 04:55:36;;;;;;;18.15;10.30;;;;;;;0.47;100.00;102132.16;6217996;22;20008;-94
2023/01/28 04:58:02;;;;;;;18.40;9.77;;;;;;;0.49;100.00;102113.56;6218358;22;20008;-94
2023/01/28 05:00:28;;;;;;;16.40;10.93;;;;;;;0.75;100.00;102153.66;6218679;22;20330;-93
2023/01/28 05:02:53;;;;;;;15.05;10.13;;;;;;;0.75;100.00;102151.09;6220704;23;20004;-94
2023/01/28 05:05:19;;;;;;;22.67;11.32;;;;;;;0.60;100.00;102126.38;6220886;23;20036;-94
2023/01/28 05:07:50;;;;;;;18.83;10.35;;;;;;;0.97;100.00;102164.88;6220892;22;20099;-94
2023/01/28 05:10:17;;;;;;;16.95;10.45;;;;;;;0.79;100.00;102143.53;6220283;22;20038;-95
2023/01/28 05:12:43;;;;;;;19.40;11.60;;;;;;;0.90;100.00;102151.25;6219973;22;20004;-94
2023/01/28 05:15:09;;;;;;;18.70;10.23;;;;;;;0.83;100.00;102146.97;6220460;22;20004;-94
2023/01/28 05:17:34;;;;;;;21.50;12.30;;;;;;;0.80;100.00;102134.22;6220060;23;20008;-95
2023/01/28 05:20:00;;;;;;;15.82;10.32;;;;;;;0.80;100.00;102139.28;6220606;23;20434;-94
2023/01/28 05:22:25;;;;;;;19.98;10.80;;;;;;;0.92;100.00;102158.91;6220452;23;20000;-95
2023/01/28 05:24:51;;;;;;;18.70;11.75;;;;;;;0.75;100.00;102136.69;6220830;23;20004;-96
2023/01/28 05:27:16;;;;;;;21.08;11.48;;;;;;;0.89;100.00;102143.63;6220293;22;20008;-93
2023/01/28 05:29:42;;;;;;;17.98;11.07;;;;;;;0.78;100.00;102131.66;6219933;23;20083;-94
2023/01/28 05:32:08;;;;;;;20.33;11.13;;;;;;;0.89;100.00;102143.63;6220248;22;20138;-94
2023/01/28 05:34:34;;;;;;;17.13;10.95;;;;;;;0.75;100.00;102133.31;6220658;22;20004;-94
2023/01/28 05:36:59;;;;;;;21.20;11.32;;;;;;;0.85;100.00;102147.81;6219718;22;20008;-94
2023/01/28 05:39:25;;;;;;;19.13;10.27;;;;;;;0.84;100.00;102148.66;6220075;23;20000;-94
2023/01/28 05:41:50;;;;;;;17.20;10.68;;;;;;;0.64;100.00;102123.03;6220705;23;20308;-93
2023/01/28 05:44:16;;;;;;;20.75;11.23;;;;;;;0.73;100.00;102145.16;6219780;22;20064;-94
2023/01/28 05:46:45;;;;;;;13.98;10.00;;;;;;;0.78;100.00;102157.09;6219230;23;20000;-94
2023/01/28 05:49:12;;;;;;;15.75;9.77;;;;;;;0.87;100.00;102163.09;6220051;22;20331;-95
2023/01/28 05:51:41;;;;;;;16.38;10.75;;;;;;;0.68;100.00;102131.53;6220058;22;20028;-94
2023/01/28 05:54:08;;;;;;;14.57;10.20;;;;;;;0.75;100.00;102146.88;6220401;23;20031;-95
2023/01/28 05:56:35;;;;;;;14.98;10.23;;;;;;;0.70;100.00;102133.25;6219874;22;20339;-94
2023/01/28 05:59:02;;;;;;;16.90;11.52;;;;;;;0.78;100.00;102146.03;6220189;23;20004;-93
2023/01/28 06:01:27;;;;;;;21.63;12.60;;;;;;;0.66;100.00;102125.59;6220744;22;20000;-95
2023/01/28 06:03:53;;;;;;;17.90;10.75;;;;;;;0.85;100.00;102151.22;6219910;22;20007;-94
2023/01/28 06:06:18;;;;;;;19.92;11.10;;;;;;;0.90;100.00;102163.13;6220299;23;20119;-94
2023/01/28 06:08:44;;;;;;;21.17;11.18;;;;;;;0.83;100.00;102167.31;6220358;22;20028;-94
2023/01/28 06:11:09;;;;;;;15.05;11.02;;;;;;;0.75;100.00;102151.94;6219911;22;20437;-94
2023/01/28 06:13:36;;;;;;;17.35;10.15;;;;;;;0.72;100.00;102151.91;6219530;23;20438;-95
2023/01/28 06:16:02;;;;;;;20.60;11.23;;;;;;;0.69;100.00;102138.34;6219813;22;20377;-95
2023/01/28 06:18:28;;;;;;;22.83;12.52;;;;;;;0.91;100.00;102180.94;6219326;22;20032;-94
2023/01/28 06:20:54;;;;;;;21.70;11.57;;;;;;;0.88;100.00;102152.94;6220332;22;20446;-94
2023/01/28 06:23:19;;;;;;;20.27;12.32;;;;;;;0.85;100.00;102163.94;6219954;22;20095;-95
2023/01/28 06:25:45;;;;;;;21.27;12.45;;;;;;;0.77;100.00;102150.28;6219759;23;20000;-95
2023/01/28 06:28:11;;;;;;;20.70;12.00;;;;;;;0.76;100.00;102138.41;6220162;22;20007;-94
2023/01/28 06:30:36;;;;;;;28.10;14.30;;;;;;;0.71;100.00;102142.59;6219585;22;20477;-94
2023/01/28 06:33:02;;;;;;;22.20;12.85;;;;;;;0.69;100.00;102136.66;6219920;23;20354;-92
2023/01/28 06:35:27;;;;;;;24.80;12.38;;;;;;;0.67;100.00;102128.16;6219986;22;20011;-96
2023/01/28 06:37:53;;;;;;;21.33;11.82;;;;;;;0.79;100.00;102148.63;6219444;22;20008;-94
2023/01/28 06:40:21;;;;;;;18.40;10.30;;;;;;;1.01;100.00;102174.25;6219976;22;20320;-94
2023/01/28 06:42:47;;;;;;;18.25;11.20;;;;;;;0.78;100.00;102146.91;6219911;23;20490;-93
2023/01/28 06:45:13;;;;;;;18.75;11.52;;;;;;;0.68;100.00;102140.00;6220383;22;20094;-96
2023/01/28 06:47:38;;;;;;;18.35;11.57;;;;;;;0.67;100.00;102129.84;6219432;22;20007;-96
2023/01/28 06:50:04;;;;;;;18.70;12.07;;;;;;;0.68;100.00;102132.38;6220341;22;20008;-94
2023/01/28 06:52:30;;;;;;;15.98;11.20;;;;;;;1.00;100.00;102172.53;6220697;22;20004;-95
2023/01/28 06:54:56;;;;;;;18.88;11.48;;;;;;;0.81;100.00;102141.84;6219769;22;20496;-95
2023/01/28 06:57:21;;;;;;;19.80;11.68;;;;;;;0.85;100.00;102156.31;6219458;22;20389;-95
2023/01/28 06:59:47;;;;;;;19.20;12.30;;;;;;;0.80;100.00;102137.59;6219269;22;20010;-95
2023/01/28 07:02:12;;;;;;;19.75;11.27;;;;;;;0.85;100.00;102141.06;6219847;22;20354;-95
2023/01/28 07:04:38;;;;;;;21.75;11.52;;;;;;;0.69;100.00;102126.47;6219354;23;20053;-95
2023/01/28 07:07:03;;;;;;;19.92;11.48;;;;;;;1.02;100.00;102165.78;6219661;22;20032;-94
2023/01/28 07:09:29;;;;;;;19.17;11.35;;;;;;;0.83;100.00;102160.53;6219737;22;20004;-95
2023/01/28 07:11:54;;;;;;;12.80;9.43;;;;;;;0.81;100.00;102151.19;6219195;22;20066;-95
2023/01/28 07:14:20;;;;;;;18.35;9.13;;;;;;;0.87;100.00;102151.22;6219174;22;20004;-94
2023/01/28 07:16:45;;;;;;;14.55;10.30;;;;;;;0.87;100.00;102140.22;6219238;22;20347;-95
2023/01/28 07:19:11;;;;;;;17.58;10.70;;;;;;;1.00;100.00;102165.78;6218662;23;20375;-96
2023/01/28 07:21:36;;;;;;;14.43;9.73;;;;;;;0.94;100.00;102147.91;6219459;22;20091;-95
2023/01/28 07:24:04;;;;;;;16.30;9.68;;;;;;;0.98;100.00;102164.06;6219513;22;20083;-95
2023/01/28 07:26:29;;;;;;;12.90;9.52;;;;;;;1.09;100.00;102182.81;6220151;23;20042;-95
2023/01/28 07:28:55;;;;;;;13.75;9.05;;;;;;;1.01;100.00;102151.38;6219403;23;20008;-96
2023/01/28 07:31:20;;;;;;;11.80;8.38;;;;;;;1.11;100.00;102158.25;6223250;22;20008;-95
2023/01/28 07:33:46;;;;;;;12.93;8.35;;;;;;;0.98;100.00;102149.66;6223494;22;20000;-94
2023/01/28 07:36:11;;;;;;;14.07;8.60;;;;;;;1.02;100.00;102163.25;6224484;22;20034;-94
2023/01/28 07:38:37;;;;;;;14.30;9.68;;;;;;;1.05;100.00;102184.47;6222727;22;20027;-93
2023/01/28 07:41:03;;;;;;;15.35;8.90;;;;;;;1.17;100.00;102201.56;6225140;22;20004;-94
2023/01/28 07:43:28;;;;;;;13.98;8.73;;;;;;;1.04;100.00;102159.03;6224576;22;20008;-94
2023/01/28 07:45:53;;;;;;;11.77;7.63;;;;;;;1.09;100.00;102170.09;6224311;22;20004;-93
2023/01/28 07:48:19;;;;;;;12.23;8.35;;;;;;;1.03;100.00;102165.81;6222894;22;20050;-94
2023/01/28 07:50:47;;;;;;;11.98;8.32;;;;;;;1.22;100.00;102199.03;6224084;22;20419;-94
2023/01/28 07:53:13;;;;;;;14.68;9.02;;;;;;;1.08;100.00;102165.84;6223071;23;20004;-94
2023/01/28 07:55:39;;;;;;;11.10;8.60;;;;;;;1.02;100.00;102147.97;6219818;23;20038;-95
2023/01/28 07:58:06;;;;;;;15.95;10.18;;;;;;;1.07;100.00;102153.97;6219541;23;20095;-95
2023/01/28 08:00:34;;;;;;;19.20;9.98;;;;;;;1.09;100.00;102154.00;6219939;23;20000;-95
2023/01/28 08:03:03;;;;;;;16.33;9.50;;;;;;;1.17;100.00;102168.50;6219568;22;20418;-96
2023/01/28 08:05:40;;;;;;;13.30;8.85;;;;;;;1.14;100.00;102160.81;6219256;23;20004;-94
2023/01/28 08:08:10;;;;;;;17.98;10.88;;;;;;;1.22;100.00;102193.94;6219161;22;20375;-95
2023/01/28 08:10:36;;;;;;;15.00;9.63;;;;;;;1.26;100.00;102196.53;6219186;22;20065;-96
2023/01/28 08:13:02;;;;;;;17.40;10.05;;;;;;;1.28;100.00;102210.13;6219366;23;20012;-94
2023/01/28 08:15:28;;;;;;;16.35;12.00;;;;;;;1.27;100.00;102208.44;6218944;23;20389;-96
2023/01/28 08:17:55;;;;;;;19.23;12.43;;;;;;;1.22;100.00;102188.84;6218935;22;20004;-95
2023/01/28 08:20:22;;;;;;;18.15;12.68;;;;;;;1.21;100.00;102199.88;6219169;22;20028;-95
2023/01/28 08:22:47;;;;;;;16.40;11.43;;;;;;;1.33;100.00;102201.69;6219308;22;20031;-95
2023/01/28 08:25:13;;;;;;;15.18;10.73;;;;;;;1.41;100.00;102210.22;6218926;23;20438;-95
2023/01/28 08:27:38;;;;;;;19.77;10.90;;;;;;;1.37;100.00;102194.09;6218958;23;20431;-94
2023/01/28 08:30:05;;;;;;;17.20;10.40;;;;;;;1.69;100.00;102237.63;6219300;22;20058;-95
2023/01/28 08:32:30;;;;;;;17.77;11.10;;;;;;;1.40;100.00;102193.28;6218705;22;20004;-95
2023/01/28 08:34:56;;;;;;;18.17;9.75;;;;;;;1.50;100.00;102189.97;6218142;23;20390;-95
2023/01/28 08:37:22;;;;;;;17.45;11.48;;;;;;;1.64;98.44;102210.44;6219483;23;20082;-94
2023/01/28 08:39:48;;;;;;;15.15;10.43;;;;;;;1.60;97.78;102206.16;6221422;22;20083;-94
2023/01/28 08:42:14;;;;;;;15.43;10.73;;;;;;;1.74;97.95;102227.50;6221127;22;20115;-94
2023/01/28 08:44:39;;;;;;;18.60;10.10;;;;;;;1.79;96.40;102225.81;6221054;22;20415;-95
2023/01/28 08:47:05;;;;;;;17.60;10.77;;;;;;;1.79;96.87;102219.88;6220941;22;20004;-95
2023/01/28 08:49:30;;;;;;;18.35;9.48;;;;;;;1.99;95.44;102246.34;6220372;22;20001;-96
2023/01/28 08:51:56;;;;;;;14.88;8.63;;;;;;;2.09;95.29;102248.09;6223279;22;20475;-95
2023/01/28 08:54:22;;;;;;;17.40;10.18;;;;;;;2.06;93.34;102231.97;6222103;22;20312;-96
2023/01/28 08:56:47;;;;;;;16.00;9.98;;;;;;;2.10;92.97;102229.44;6221147;22;20012;-93
2023/01/28 08:59:14;;;;;;;13.25;8.95;;;;;;;2.08;91.44;102226.03;6221151;23;20379;-95
2023/01/28 09:01:51;;;;;;;15.38;9.38;;;;;;;2.19;91.53;102218.44;6224756;22;20069;-95
2023/01/28 09:04:20;;;;;;;12.48;8.02;;;;;;;2.29;90.68;102224.44;6224997;22;20008;-95
2023/01/28 09:06:46;;;;;;;11.88;7.85;;;;;;;2.31;89.10;102202.38;6226847;22;20004;-95
2023/01/28 09:09:14;;;;;;;13.77;7.65;;;;;;;2.38;88.97;102214.31;6228882;23;20014;-93
2023/01/28 09:11:43;;;;;;;12.57;7.40;;;;;;;2.44;87.89;102224.56;6225175;22;20403;-96
2023/01/28 09:14:09;;;;;;;13.15;8.48;;;;;;;2.46;83.05;102211.78;6223644;23;20000;-93
2023/01/28 09:16:38;;;;;;;9.98;7.20;;;;;;;2.54;83.68;102200.81;6224267;22;20016;-94
2023/01/28 09:19:03;;;;;;;15.80;9.63;;;;;;;2.65;87.41;102205.09;6223576;23;20005;-95
2023/01/28 09:21:35;;;;;;;22.13;12.18;;;;;;;2.66;87.84;102199.13;6225254;23;20011;-94
2023/01/28 09:24:01;;;;;;;25.67;13.00;;;;;;;2.73;88.72;102247.63;6177079;23;20011;-95
2023/01/28 09:26:33;;;;;;;20.35;13.57;;;;;;;2.48;90.81;102244.09;6225544;22;20011;-96
2023/01/28 09:29:04;;;;;;;26.20;12.80;;;;;;;2.40;91.23;102207.53;6222680;22;20099;-96
2023/01/28 09:31:29;;;;;;;23.52;13.50;;;;;;;2.65;90.32;102239.06;6225532;22;20008;-93
2023/01/28 09:33:58;;;;;;;21.83;13.50;;;;;;;2.63;89.34;102209.31;6223727;23;20054;-94
2023/01/28 09:36:32;;;;;;;18.42;12.25;;;;;;;2.74;88.45;102202.56;6221607;22;20006;-96
2023/01/28 09:39:00;;;;;;;22.55;12.48;;;;;;;2.68;87.62;102197.44;6223942;23;20008;-95
2023/01/28 09:41:58;;;;;;;21.25;12.75;;;;;;;2.96;86.76;102245.16;6223094;23;20487;-94
2023/01/28 09:45:09;;;;;;;17.65;11.43;;;;;;;3.12;87.38;102223.09;6224322;22;20039;-94
2023/01/28 09:47:55;;;;;;;23.63;12.02;;;;;;;3.33;85.48;102219.72;6217956;23;20008;-96
2023/01/28 09:50:40;;;;;;;16.58;11.25;;;;;;;3.25;83.36;102228.22;6225150;22;20446;-96
2023/01/28 09:53:23;;;;;;;23.00;12.90;;;;;;;3.06;85.06;102219.66;6223478;23;20001;-96
2023/01/28 09:56:19;;;;;;;22.40;12.85;;;;;;;2.61;83.95;102166.00;6224089;22;20015;-96
2023/01/28 09:59:15;;;;;;;18.27;12.15;;;;;;;2.86;84.89;102171.16;6237220;23;20026;-96
2023/01/28 10:02:25;;;;;;;19.60;12.52;;;;;;;3.17;83.71;102205.22;6259612;22;20000;-96
2023/01/28 10:05:30;;;;;;;16.42;10.75;;;;;;;3.56;82.51;102193.34;6230243;22;20091;-95
2023/01/28 10:08:30;;;;;;;16.45;9.68;;;;;;;3.73;80.48;102191.66;6223554;22;20034;-95
2023/01/28 10:11:08;;;;;;;17.15;9.32;;;;;;;3.69;78.77;102168.69;6224158;23;20015;-95
2023/01/28 10:13:48;;;;;;;19.42;10.23;;;;;;;3.91;77.95;102195.03;6223906;23;20000;-94
2023/01/28 10:16:35;;;;;;;16.65;9.57;;;;;;;3.93;76.80;102206.94;6225211;23;20101;-94
2023/01/28 10:19:18;;;;;;;16.48;9.32;;;;;;;3.56;76.16;102155.03;6224709;22;20068;-96
2023/01/28 10:22:36;;;;;;;13.25;8.50;;;;;;;3.83;76.96;102156.75;6223724;23;20008;-95
2023/01/28 11:10:11;;;;;;;32.25;15.57;;;;;;;5.21;73.02;102168.88;6291295;22;20141;-94
2023/01/28 13:08:03;;;;;;;18.67;5.07;;;;;;;5.72;75.18;102147.97;6324703;22;20019;-96
2023/01/28 13:37:29;;;;;;;7.47;5.22;;;;;;;5.30;76.61;102093.72;6315339;22;20018;-95
2023/01/28 13:52:08;;;;;;;10.50;5.32;;;;;;;5.34;76.49;102075.75;6312376;22;20019;-95
2023/01/28 13:54:39;;;;;;;8.80;4.28;;;;;;;5.29;75.81;102067.28;6280744;22;20003;-94
2023/01/28 13:57:19;;;;;;;;;;;;;;;5.56;75.23;102108.84;6281697;22;20003;-95
2023/01/28 14:00:15;;;;;;;;;;;;;;;;;;;;;
2023/01/28 14:06:47;;;;;;;12.27;5.50;;;;;;;5.58;76.29;102090.03;6275543;22;20061;-95
2023/01/28 14:10:23;;;;;;;10.98;5.90;;;;;;;5.46;76.46;102090.16;6293909;22;20014;-96
2023/01/28 14:13:07;;;;;;;9.32;5.10;;;;;;;5.29;78.41;102090.31;6308817;22;20057;-93
2023/01/28 14:15:44;;;;;;;12.68;5.72;;;;;;;5.34;77.55;102097.94;6281091;22;20088;-96
2023/01/28 14:18:46;;;;;;;10.30;6.10;;;;;;;5.26;79.05;102089.47;6283656;22;20038;-95
2023/01/28 14:21:17;;;;;;;9.55;5.68;;;;;;;5.19;78.50;102067.34;6262432;22;20031;-96
2023/01/28 14:23:52;;;;;;;10.13;5.80;;;;;;;5.18;78.89;102075.91;6283670;22;20003;-95
2023/01/28 14:26:42;;;;;;;9.05;5.43;;;;;;;5.20;79.82;102080.16;6283543;22;20019;-95
2023/01/28 14:29:15;;;;;;;8.90;6.75;;;;;;;5.27;79.52;102102.28;6283167;22;20007;-94
2023/01/28 14:32:21;;;;;;;10.98;5.75;;;;;;;5.08;80.11;102075.97;6287470;22;20007;-95
2023/01/28 14:34:48;;;;;;;14.95;6.03;;;;;;;5.08;80.02;102081.09;6253290;22;20022;-93
2023/01/28 14:37:29;;;;;;;8.25;6.20;;;;;;;5.01;81.66;102074.34;6281666;22;20425;-94
2023/01/28 14:40:12;;;;;;;11.67;5.63;;;;;;;4.97;82.14;102064.97;6281210;22;20003;-94
2023/01/28 14:42:47;;;;;;;11.20;6.47;;;;;;;5.04;81.59;102084.53;6281696;22;20434;-95
2023/01/28 14:45:33;;;;;;;8.30;5.30;;;;;;;4.91;82.59;102067.59;6281566;22;20068;-95
2023/01/28 14:48:05;;;;;;;15.68;6.88;;;;;;;5.07;82.76;102105.00;6282236;22;20014;-95
2023/01/28 14:50:42;;;;;;;18.15;9.07;;;;;;;5.07;82.82;102099.00;6292382;22;20022;-94
2023/01/28 14:53:43;;;;;;;12.07;6.55;;;;;;;5.10;83.38;102104.97;6308589;22;20009;-94
2023/01/28 14:56:30;;;;;;;12.63;6.40;;;;;;;5.12;83.14;102113.50;6312764;22;20003;-94
2023/01/28 14:59:19;;;;;;;7.78;6.00;;;;;;;4.83;83.52;102084.69;6306610;22;20039;-93
2023/01/28 15:01:46;;;;;;;9.95;6.22;;;;;;;5.02;82.91;102124.63;6307255;22;20003;-94
2023/01/28 15:04:23;;;;;;;12.35;6.43;;;;;;;4.99;83.54;102109.31;6307124;22;20088;-94
2023/01/28 15:06:48;;;;;;;13.43;6.80;;;;;;;4.96;83.22;102101.66;6309422;22;20003;-93
2023/01/28 15:09:14;;;;;;;10.85;6.57;;;;;;;4.98;84.79;102099.09;6306847;22;20291;-94
2023/01/28 15:11:43;;;;;;;16.60;7.20;;;;;;;5.07;83.83;102097.34;6306565;22;20352;-93
2023/01/28 15:14:30;;;;;;;9.88;6.85;;;;;;;5.13;83.71;102088.75;6308151;22;20038;-93
2023/01/28 15:16:57;;;;;;;10.18;6.35;;;;;;;5.21;83.15;102092.06;6308758;22;20007;-95
2023/01/28 15:19:32;;;;;;;26.52;6.90;;;;;;;5.25;84.12;102098.88;6310210;22;20003;-95
2023/01/28 15:22:02;;;;;;;12.02;6.85;;;;;;;5.22;83.45;102104.03;6309132;22;20155;-93
2023/01/28 15:24:27;;;;;;;12.10;5.93;;;;;;;5.17;83.27;102099.78;6308814;22;20030;-93
2023/01/28 15:26:53;;;;;;;9.85;5.88;;;;;;;5.23;82.36;102112.56;6308850;22;20053;-95